Mattaponi, Virginia
Current Conditions -  °F | °C
As of 8:55 PM on Wednesday 26 Nov 2014 (Local Time) from KFYJ Reporting Station
Overcast Overcast  
Wind Chill: 35°   Ceiling: 1100
Heat Index: 40°   Visibility: 10mi
Dew Point: 37°   Wind: 8mph
Humidity: 87%   Direction: 290°WNW
Pressure: 30.01"   Gusts: NA
Location:  37.53°N, 76.77°W
Report Text: KFYJ 270155Z AUTO 29007KT 10SM OVC011 05/03 A3001 RMK AO2 T00450025
Loading
Personal Weather Stations






























Interactive Weather Map New forecast layout! Learn more

10-Day Weather Forecast

Advertisements
Track Severe Weather on mobile